createdAt,value
2022-11-26T00:00:21.841Z,31.92
2022-11-26T00:02:28.660Z,33.95
2022-11-26T00:04:33.218Z,32.20
2022-11-26T00:06:39.822Z,31.95
2022-11-26T00:08:44.220Z,31.35
2022-11-26T00:10:51.227Z,29.60
2022-11-26T00:12:58.875Z,29.05
2022-11-26T00:15:16.038Z,29.02
2022-11-26T00:17:21.207Z,28.02
2022-11-26T00:19:25.697Z,27.70
2022-11-26T00:21:37.057Z,27.13
2022-11-26T00:23:41.332Z,25.80
2022-11-26T00:25:48.776Z,23.42
2022-11-26T00:27:55.419Z,24.27
2022-11-26T00:30:01.366Z,26.55
2022-11-26T00:32:10.434Z,26.63
2022-11-26T00:34:14.863Z,27.13
2022-11-26T00:36:22.175Z,26.48
2022-11-26T00:38:27.513Z,27.23
2022-11-26T00:40:34.839Z,27.60
2022-11-26T00:42:43.568Z,26.20
2022-11-26T00:44:50.107Z,26.85
2022-11-26T00:46:56.041Z,26.70
2022-11-26T00:49:00.781Z,24.48
2022-11-26T00:51:05.355Z,26.08
2022-11-26T00:53:13.945Z,29.17
2022-11-26T00:55:30.605Z,30.90
2022-11-26T00:57:35.224Z,32.50
2022-11-26T00:59:39.546Z,31.75
2022-11-26T01:01:43.960Z,29.27
2022-11-26T01:03:50.011Z,26.77
2022-11-26T01:05:56.174Z,27.00
2022-11-26T01:08:03.934Z,27.80
2022-11-26T01:10:15.733Z,27.60
2022-11-26T01:12:20.607Z,29.25
2022-11-26T01:14:25.259Z,27.23
2022-11-26T01:16:31.496Z,28.60
2022-11-26T01:18:37.144Z,25.33
2022-11-26T01:20:43.470Z,24.90
2022-11-26T01:22:49.746Z,25.63
2022-11-26T01:24:53.999Z,28.23
2022-11-26T01:26:58.359Z,25.30
2022-11-26T01:29:02.774Z,29.40
2022-11-26T01:31:15.974Z,24.85
2022-11-26T01:33:21.039Z,24.10
2022-11-26T01:35:25.757Z,24.30
2022-11-26T01:37:31.468Z,24.73
2022-11-26T01:39:36.153Z,26.67
2022-11-26T01:41:46.164Z,23.45
2022-11-26T01:45:58.229Z,24.45
2022-11-26T01:48:02.534Z,24.48
2022-11-26T01:50:43.772Z,25.27
2022-11-26T01:52:50.055Z,24.30
2022-11-26T01:54:55.616Z,24.70
2022-11-26T01:57:09.281Z,25.48
2022-11-26T01:59:19.866Z,24.80
2022-11-26T02:01:24.262Z,24.30
2022-11-26T02:03:30.532Z,26.08
2022-11-26T02:05:41.900Z,24.63
2022-11-26T02:07:46.433Z,25.27
2022-11-26T02:09:52.829Z,26.20
2022-11-26T02:11:57.469Z,26.92
2022-11-26T02:14:06.066Z,26.02
2022-11-26T02:16:19.583Z,26.58
2022-11-26T02:18:26.361Z,30.38
2022-11-26T02:20:46.636Z,27.65
2022-11-26T02:23:29.617Z,25.33
2022-11-26T02:25:52.384Z,25.48
2022-11-26T02:28:16.970Z,25.77
2022-11-26T02:30:22.930Z,23.70
2022-11-26T02:32:33.472Z,25.98
2022-11-26T02:34:44.985Z,25.75
2022-11-26T02:36:55.323Z,25.23
2022-11-26T02:39:11.586Z,25.38
2022-11-26T02:41:15.770Z,23.67
2022-11-26T02:43:21.865Z,27.92
2022-11-26T02:45:32.625Z,28.45
2022-11-26T02:47:41.212Z,56.50
2022-11-26T02:49:47.224Z,63.13
2022-11-26T02:51:55.093Z,51.45
2022-11-26T02:54:00.907Z,63.92
2022-11-26T02:56:09.207Z,41.22
2022-11-26T02:58:15.730Z,36.58
2022-11-26T03:00:20.876Z,38.13
2022-11-26T03:02:33.445Z,37.63
2022-11-26T03:04:41.164Z,42.63
2022-11-26T03:06:45.985Z,42.53
2022-11-26T03:08:51.192Z,41.22
2022-11-26T03:10:55.531Z,38.90
2022-11-26T03:12:59.946Z,40.88
2022-11-26T03:15:04.741Z,36.65
2022-11-26T03:17:09.404Z,32.67
2022-11-26T03:19:15.383Z,32.40
2022-11-26T03:21:19.696Z,31.85
2022-11-26T03:23:23.962Z,28.60
2022-11-26T03:25:28.687Z,30.13
2022-11-26T03:27:33.202Z,26.58
2022-11-26T03:29:37.579Z,28.23
2022-11-26T03:31:41.861Z,27.08
2022-11-26T03:33:46.385Z,26.95
2022-11-26T03:35:52.217Z,26.35
2022-11-26T03:37:56.737Z,25.70
2022-11-26T03:40:01.209Z,26.85
2022-11-26T03:42:06.881Z,24.90
2022-11-26T03:44:11.598Z,22.48
2022-11-26T03:46:16.028Z,24.55
2022-11-26T03:48:21.245Z,23.35
2022-11-26T03:50:25.760Z,21.10
2022-11-26T03:52:32.105Z,22.35
2022-11-26T03:54:36.604Z,23.95
2022-11-26T03:56:41.167Z,24.17
2022-11-26T03:58:45.493Z,23.38
2022-11-26T04:00:49.960Z,21.75
2022-11-26T04:02:54.167Z,22.58
2022-11-26T04:04:58.421Z,20.98
2022-11-26T04:07:02.717Z,21.17
2022-11-26T04:09:08.905Z,20.50
2022-11-26T04:11:13.251Z,22.60
2022-11-26T04:13:17.630Z,22.27
2022-11-26T04:15:22.073Z,24.00
2022-11-26T04:17:26.447Z,23.55
2022-11-26T04:19:30.823Z,22.75
2022-11-26T04:21:35.252Z,22.38
2022-11-26T04:23:39.472Z,22.85
2022-11-26T04:25:45.268Z,23.48
2022-11-26T04:27:49.534Z,21.70
2022-11-26T04:29:53.839Z,22.60
2022-11-26T04:31:58.586Z,25.02
2022-11-26T04:34:02.921Z,36.72
2022-11-26T04:36:07.769Z,35.63
2022-11-26T04:38:12.182Z,38.35
2022-11-26T04:40:16.583Z,33.20
2022-11-26T04:42:22.972Z,31.85
2022-11-26T04:44:27.481Z,32.55
2022-11-26T04:46:31.826Z,30.42
2022-11-26T04:48:36.356Z,28.38
2022-11-26T04:50:40.674Z,24.60
2022-11-26T04:52:44.916Z,26.00
2022-11-26T04:54:49.564Z,26.60
2022-11-26T04:56:53.885Z,25.98
2022-11-26T04:58:59.773Z,25.67
2022-11-26T05:01:04.316Z,24.52
2022-11-26T05:03:08.678Z,27.88
2022-11-26T05:05:14.167Z,27.05
2022-11-26T05:07:18.709Z,25.88
2022-11-26T05:09:23.073Z,25.55
2022-11-26T05:11:28.653Z,24.05
2022-11-26T05:13:33.243Z,24.70
2022-11-26T05:15:39.258Z,23.67
2022-11-26T05:17:46.650Z,24.85
2022-11-26T05:19:51.162Z,23.98
2022-11-26T05:21:55.841Z,26.40
2022-11-26T05:24:00.127Z,25.73
2022-11-26T05:26:04.358Z,25.55
2022-11-26T05:28:08.668Z,26.90
2022-11-26T05:30:14.272Z,28.27
2022-11-26T05:32:20.039Z,27.63
2022-11-26T05:34:24.309Z,25.00
2022-11-26T05:36:28.584Z,27.13
2022-11-26T05:38:32.862Z,27.70
2022-11-26T05:40:37.141Z,27.23
2022-11-26T05:42:41.724Z,28.33
2022-11-26T05:44:45.931Z,26.48
2022-11-26T05:46:51.824Z,27.58
2022-11-26T05:48:57.986Z,27.85
2022-11-26T05:51:03.475Z,26.67
2022-11-26T05:53:10.989Z,26.92
2022-11-26T05:55:16.815Z,26.90
2022-11-26T05:57:21.384Z,27.08
2022-11-26T05:59:25.646Z,26.20
2022-11-26T06:01:29.795Z,24.63
2022-11-26T06:03:33.957Z,26.60
2022-11-26T06:05:39.881Z,25.15
2022-11-26T06:07:45.109Z,24.92
2022-11-26T06:09:49.469Z,26.67
2022-11-26T06:11:53.920Z,24.48
2022-11-26T06:13:59.327Z,25.02
2022-11-26T06:16:03.509Z,24.27
2022-11-26T06:18:07.797Z,26.25
2022-11-26T06:20:13.661Z,26.48
2022-11-26T06:22:19.396Z,25.73
2022-11-26T06:24:23.572Z,26.40
2022-11-26T06:26:27.775Z,29.13
2022-11-26T06:28:31.931Z,27.75
2022-11-26T06:30:36.048Z,28.35
2022-11-26T06:32:40.141Z,29.05
2022-11-26T06:34:44.644Z,29.83
2022-11-26T06:36:49.273Z,32.40
2022-11-26T06:38:54.724Z,31.45
2022-11-26T06:41:00.550Z,32.50
2022-11-26T06:43:05.013Z,33.13
2022-11-26T06:45:10.228Z,33.47
2022-11-26T06:47:14.988Z,34.28
2022-11-26T06:49:19.339Z,32.03
2022-11-26T06:51:27.824Z,32.55
2022-11-26T06:53:32.063Z,33.13
2022-11-26T06:55:38.903Z,35.83
2022-11-26T06:57:43.053Z,34.45
2022-11-26T06:59:50.069Z,33.50
2022-11-26T07:01:55.067Z,36.08
2022-11-26T07:03:59.370Z,34.53
2022-11-26T07:06:03.673Z,35.60
2022-11-26T07:08:07.771Z,36.78
2022-11-26T07:10:15.160Z,35.22
2022-11-26T07:12:20.638Z,35.78
2022-11-26T07:14:24.776Z,37.40
2022-11-26T07:16:29.638Z,34.13
2022-11-26T07:18:34.321Z,34.78
2022-11-26T07:20:38.955Z,34.25
2022-11-26T07:22:43.114Z,36.05
2022-11-26T07:24:47.288Z,35.03
2022-11-26T07:26:51.547Z,34.42
2022-11-26T07:28:57.242Z,34.83
2022-11-26T07:31:02.680Z,36.08
2022-11-26T07:33:07.111Z,35.25
2022-11-26T07:35:11.186Z,34.75
2022-11-26T07:37:15.302Z,36.17
2022-11-26T07:39:19.376Z,34.92
2022-11-26T07:41:24.093Z,34.63
2022-11-26T07:43:28.271Z,35.63
2022-11-26T07:45:36.776Z,36.70
2022-11-26T07:47:40.978Z,35.88
2022-11-26T07:49:45.172Z,35.90
2022-11-26T07:51:49.513Z,34.45
2022-11-26T07:53:54.334Z,34.83
2022-11-26T07:55:58.452Z,37.72
2022-11-26T07:58:03.010Z,41.05
2022-11-26T08:00:10.160Z,47.35
2022-11-26T08:02:18.899Z,49.83
2022-11-26T08:04:23.069Z,47.97
2022-11-26T08:06:29.787Z,48.17
2022-11-26T08:08:35.546Z,41.92
2022-11-26T08:10:40.259Z,38.55
2022-11-26T08:12:44.483Z,37.72
2022-11-26T08:14:48.550Z,36.40
2022-11-26T08:16:54.826Z,40.88
2022-11-26T08:19:01.926Z,37.85
2022-11-26T08:21:06.811Z,38.17
2022-11-26T08:23:10.973Z,38.58
2022-11-26T08:25:15.209Z,37.50
2022-11-26T08:27:19.329Z,37.67
2022-11-26T08:29:23.504Z,34.42
2022-11-26T08:31:28.428Z,37.55
2022-11-26T08:33:32.913Z,36.35
2022-11-26T08:36:05.029Z,37.35
2022-11-26T08:38:02.983Z,36.92
2022-11-26T08:40:08.748Z,36.58
2022-11-26T08:42:12.784Z,36.42
2022-11-26T08:44:17.172Z,34.45
2022-11-26T08:46:22.797Z,37.63
2022-11-26T08:48:31.736Z,38.20
2022-11-26T08:50:37.526Z,37.40
2022-11-26T08:52:42.737Z,39.63
2022-11-26T08:54:47.060Z,38.40
2022-11-26T08:56:51.486Z,41.63
2022-11-26T08:58:55.710Z,37.70
2022-11-26T09:00:59.914Z,40.17
2022-11-26T09:03:04.289Z,38.55
2022-11-26T09:05:09.235Z,38.30
2022-11-26T09:07:15.061Z,38.25
2022-11-26T09:09:19.167Z,40.63
2022-11-26T09:11:23.634Z,39.10
2022-11-26T09:13:28.241Z,42.65
2022-11-26T09:15:32.378Z,40.22
2022-11-26T09:17:36.553Z,42.08
2022-11-26T09:19:40.628Z,43.22
2022-11-26T09:21:45.844Z,44.88
2022-11-26T09:23:51.484Z,45.80
2022-11-26T09:25:55.523Z,45.72
2022-11-26T09:27:59.845Z,45.17
2022-11-26T09:30:04.055Z,47.03
2022-11-26T09:32:24.456Z,49.72
2022-11-26T09:34:30.274Z,50.60
2022-11-26T09:36:35.816Z,45.67
2022-11-26T09:38:40.107Z,45.67
2022-11-26T09:40:56.246Z,46.50
2022-11-26T09:43:08.873Z,46.60
2022-11-26T09:45:22.881Z,42.97
2022-11-26T09:47:29.135Z,44.90
2022-11-26T09:49:37.540Z,47.83
2022-11-26T09:51:43.773Z,47.35
2022-11-26T09:53:51.355Z,40.33
2022-11-26T09:55:58.813Z,43.80
2022-11-26T09:58:12.255Z,41.95
2022-11-26T10:00:26.014Z,44.05
2022-11-26T10:02:30.339Z,43.65
2022-11-26T10:04:37.835Z,46.05
2022-11-26T10:06:51.425Z,47.40
2022-11-26T10:09:17.860Z,44.45
2022-11-26T10:11:32.433Z,45.00
2022-11-26T10:13:45.734Z,41.60
2022-11-26T10:16:03.954Z,39.67
2022-11-26T10:18:22.087Z,37.83
2022-11-26T10:20:51.146Z,38.33
2022-11-26T10:23:00.552Z,36.35
2022-11-26T10:25:15.035Z,36.65
2022-11-26T10:27:23.164Z,37.08
2022-11-26T10:29:29.208Z,35.85
2022-11-26T10:31:34.679Z,38.05
2022-11-26T10:33:47.048Z,37.15
2022-11-26T10:35:51.862Z,38.40
2022-11-26T10:37:57.212Z,38.35
2022-11-26T10:40:17.375Z,35.17
2022-11-26T10:42:24.148Z,36.67
2022-11-26T10:47:24.974Z,37.25
2022-11-26T10:49:30.905Z,38.90
2022-11-26T10:51:37.768Z,37.80
2022-11-26T10:53:53.695Z,38.65
2022-11-26T10:56:00.760Z,37.65
2022-11-26T10:58:08.857Z,37.20
2022-11-26T11:00:32.727Z,37.63
2022-11-26T11:02:39.348Z,38.30
2022-11-26T11:04:47.419Z,40.90
2022-11-26T11:06:51.997Z,37.35
2022-11-26T11:08:56.922Z,38.28
2022-11-26T11:11:02.953Z,37.72
2022-11-26T11:13:15.371Z,39.05
2022-11-26T11:15:25.162Z,41.53
2022-11-26T11:17:35.926Z,41.78
2022-11-26T11:19:40.890Z,43.92
2022-11-26T11:21:48.382Z,40.58
2022-11-26T11:24:08.334Z,39.70
2022-11-26T11:26:22.019Z,42.38
2022-11-26T11:28:29.512Z,40.90
2022-11-26T11:30:36.709Z,41.17
2022-11-26T11:32:41.884Z,42.58
2022-11-26T11:34:47.367Z,36.97
2022-11-26T11:37:03.168Z,39.70
2022-11-26T11:39:07.373Z,40.28
2022-11-26T11:41:20.185Z,39.78
2022-11-26T11:43:25.572Z,37.72
2022-11-26T11:45:42.596Z,37.78
2022-11-26T11:47:52.816Z,39.53
2022-11-26T11:50:21.317Z,40.10
2022-11-26T11:52:36.428Z,37.60
2022-11-26T11:54:52.675Z,38.60
2022-11-26T11:57:03.747Z,41.63
2022-11-26T11:59:24.352Z,39.85
2022-11-26T12:01:42.744Z,40.50
2022-11-26T12:04:17.852Z,41.53
2022-11-26T12:06:36.744Z,41.70
2022-11-26T12:08:50.240Z,39.03
2022-11-26T12:11:06.791Z,40.60
2022-11-26T12:13:14.522Z,38.58
2022-11-26T12:15:26.740Z,40.08
2022-11-26T12:17:37.398Z,38.92
2022-11-26T12:19:48.767Z,36.35
2022-11-26T12:22:02.805Z,27.02
2022-11-26T12:24:14.973Z,30.15
2022-11-26T12:26:25.598Z,37.55
2022-11-26T12:28:32.783Z,38.78
2022-11-26T12:30:45.703Z,39.95
2022-11-26T12:32:55.356Z,38.33
2022-11-26T12:35:05.888Z,40.55
2022-11-26T12:37:19.106Z,39.28
2022-11-26T12:39:31.975Z,42.58
2022-11-26T12:41:42.662Z,41.38
2022-11-26T12:43:52.031Z,39.63
2022-11-26T12:46:00.455Z,40.03
2022-11-26T12:48:15.805Z,40.13
2022-11-26T12:50:27.521Z,38.70
2022-11-26T12:52:39.178Z,37.90
2022-11-26T12:54:55.181Z,40.55
2022-11-26T12:57:05.355Z,41.97
2022-11-26T12:59:18.725Z,39.78
2022-11-26T13:01:24.295Z,44.42
2022-11-26T13:03:33.724Z,45.53
2022-11-26T13:05:49.960Z,46.90
2022-11-26T13:08:10.970Z,44.55
2022-11-26T13:10:26.177Z,46.05
2022-11-26T13:12:41.452Z,42.92
2022-11-26T13:14:53.012Z,44.25
2022-11-26T13:17:03.693Z,41.08
2022-11-26T13:19:14.526Z,41.88
2022-11-26T13:21:35.808Z,41.63
2022-11-26T13:24:03.997Z,39.45
2022-11-26T13:26:30.295Z,38.47
2022-11-26T13:28:52.006Z,40.65
2022-11-26T13:31:09.178Z,43.10
2022-11-26T13:33:38.304Z,37.35
2022-11-26T13:36:16.246Z,39.55
2022-11-26T13:38:29.305Z,38.97
2022-11-26T13:40:59.278Z,40.90
2022-11-26T13:45:57.236Z,35.90
2022-11-26T13:48:07.802Z,36.83
2022-11-26T13:50:16.536Z,38.10
2022-11-26T13:52:25.820Z,38.28
2022-11-26T13:54:37.334Z,38.97
2022-11-26T13:56:43.788Z,36.95
2022-11-26T13:58:52.100Z,39.58
2022-11-26T14:00:56.344Z,36.22
2022-11-26T14:03:01.255Z,41.53
2022-11-26T14:05:08.438Z,42.50
2022-11-26T14:07:22.422Z,43.42
2022-11-26T14:09:50.020Z,40.55
2022-11-26T14:11:57.305Z,39.97
2022-11-26T14:14:31.923Z,40.88
2022-11-26T14:17:35.198Z,39.80
2022-11-26T14:20:01.765Z,37.47
2022-11-26T14:22:07.802Z,38.65
2022-11-26T14:24:12.052Z,41.60
2022-11-26T14:26:20.697Z,38.67
2022-11-26T14:28:25.103Z,39.75
2022-11-26T14:30:29.635Z,41.30
2022-11-26T14:32:38.420Z,38.80
2022-11-26T14:34:48.751Z,39.60
2022-11-26T14:36:56.977Z,38.78
2022-11-26T14:39:08.811Z,36.65
2022-11-26T14:41:13.053Z,39.15
2022-11-26T14:43:20.662Z,37.47
2022-11-26T14:45:25.709Z,38.97
2022-11-26T14:47:35.086Z,38.88
2022-11-26T14:49:41.661Z,38.80
2022-11-26T14:51:47.228Z,40.75
2022-11-26T14:53:52.078Z,38.28
2022-11-26T14:55:56.586Z,41.42
2022-11-26T14:58:08.959Z,39.22
2022-11-26T15:00:25.049Z,39.53
2022-11-26T15:02:31.993Z,40.00
2022-11-26T15:04:38.996Z,38.55
2022-11-26T15:06:45.621Z,38.60
2022-11-26T15:08:50.108Z,38.90
2022-11-26T15:10:57.412Z,40.38
2022-11-26T15:13:06.013Z,41.85
2022-11-26T15:15:15.987Z,40.55
2022-11-26T15:19:31.882Z,39.97
2022-11-26T15:21:37.123Z,40.13
2022-11-26T15:23:41.822Z,40.85
2022-11-26T15:25:51.394Z,41.05
2022-11-26T15:28:00.349Z,43.85
2022-11-26T15:30:05.420Z,43.22
2022-11-26T15:32:30.170Z,41.65
2022-11-26T15:34:35.068Z,41.03
2022-11-26T15:36:39.351Z,46.67
2022-11-26T15:39:03.092Z,44.85
2022-11-26T15:41:09.505Z,45.80
2022-11-26T15:43:23.636Z,45.75
2022-11-26T15:45:48.142Z,46.90
2022-11-26T15:47:55.385Z,47.13
2022-11-26T15:50:03.138Z,46.72
2022-11-26T15:52:18.914Z,46.38
2022-11-26T15:54:30.872Z,48.28
2022-11-26T15:56:43.175Z,48.58
2022-11-26T15:58:53.165Z,50.20
2022-11-26T16:01:01.639Z,47.40
2022-11-26T16:03:43.758Z,47.63
2022-11-26T16:05:56.794Z,49.70
2022-11-26T16:08:07.421Z,51.60
2022-11-26T16:10:22.089Z,52.05
2022-11-26T16:12:29.422Z,53.08
2022-11-26T16:14:35.479Z,52.85
2022-11-26T16:16:41.632Z,53.13
2022-11-26T16:18:54.494Z,51.53
2022-11-26T16:21:10.333Z,49.90
2022-11-26T16:23:23.821Z,50.42
2022-11-26T16:25:32.040Z,51.80
2022-11-26T16:27:36.558Z,49.95
2022-11-26T16:29:43.108Z,49.72
2022-11-26T16:31:47.336Z,51.97
2022-11-26T16:33:53.117Z,50.30
2022-11-26T16:35:57.844Z,48.92
2022-11-26T16:38:02.215Z,51.60
2022-11-26T16:40:14.887Z,48.30
2022-11-26T16:42:21.088Z,46.05
2022-11-26T16:44:25.245Z,46.03
2022-11-26T16:46:29.365Z,46.55
2022-11-26T16:48:34.216Z,44.00
2022-11-26T16:50:42.244Z,42.90
2022-11-26T16:52:46.491Z,41.33
2022-11-26T16:54:51.295Z,46.25
2022-11-26T16:56:56.230Z,43.28
2022-11-26T16:59:02.778Z,41.22
2022-11-26T17:01:07.099Z,41.45
2022-11-26T17:03:14.354Z,42.58
2022-11-26T17:05:19.292Z,40.50
2022-11-26T17:07:32.185Z,42.13
2022-11-26T17:09:36.548Z,42.92
2022-11-26T17:11:40.754Z,44.85
2022-11-26T17:13:44.857Z,40.67
2022-11-26T17:15:49.504Z,42.22
2022-11-26T17:17:57.047Z,41.17
2022-11-26T17:20:01.592Z,49.25
2022-11-26T17:22:17.372Z,42.88
2022-11-26T17:24:27.048Z,40.92
2022-11-26T17:26:36.137Z,43.92
2022-11-26T17:28:40.359Z,43.33
2022-11-26T17:30:47.162Z,39.50
2022-11-26T17:32:54.878Z,42.80
2022-11-26T17:34:59.092Z,43.78
2022-11-26T17:37:03.461Z,41.63
2022-11-26T17:39:07.624Z,46.63
2022-11-26T17:41:13.327Z,43.92
2022-11-26T17:43:17.918Z,46.22
2022-11-26T17:45:22.359Z,43.88
2022-11-26T17:47:28.994Z,43.58
2022-11-26T17:49:33.856Z,43.28
2022-11-26T17:51:38.939Z,41.55
2022-11-26T17:53:44.383Z,43.35
2022-11-26T17:55:49.756Z,42.63
2022-11-26T17:57:56.101Z,44.75
2022-11-26T18:00:01.363Z,44.88
2022-11-26T18:02:06.102Z,43.95
2022-11-26T18:04:25.063Z,44.92
2022-11-26T18:06:43.691Z,44.25
2022-11-26T18:08:47.936Z,43.63
2022-11-26T18:10:52.261Z,44.95
2022-11-26T18:12:58.558Z,43.08
2022-11-26T18:15:04.126Z,43.55
2022-11-26T18:17:10.459Z,43.35
2022-11-26T18:19:17.643Z,41.75
2022-11-26T18:21:21.746Z,42.60
2022-11-26T18:23:25.936Z,41.88
2022-11-26T18:25:30.515Z,41.42
2022-11-26T18:27:34.921Z,41.13
2022-11-26T18:29:41.241Z,42.45
2022-11-26T18:31:45.688Z,40.75
2022-11-26T18:33:49.835Z,41.72
2022-11-26T18:35:54.242Z,40.88
2022-11-26T18:37:59.644Z,42.65
2022-11-26T18:40:05.484Z,43.53
2022-11-26T18:44:34.048Z,44.28
2022-11-26T18:46:39.971Z,44.33
2022-11-26T18:48:47.290Z,45.58
2022-11-26T18:50:57.479Z,45.40
2022-11-26T18:55:08.519Z,42.95
2022-11-26T18:57:12.896Z,42.97
2022-11-26T18:59:17.680Z,42.97
2022-11-26T19:01:25.382Z,44.83
2022-11-26T19:03:33.341Z,41.25
2022-11-26T19:05:39.207Z,41.20
2022-11-26T19:07:45.150Z,41.92
2022-11-26T19:10:10.576Z,48.60
2022-11-26T19:12:15.844Z,44.03
2022-11-26T19:14:24.279Z,43.70
2022-11-26T19:16:30.376Z,41.95
2022-11-26T19:18:37.158Z,41.92
2022-11-26T19:20:49.526Z,42.83
2022-11-26T19:22:54.738Z,40.22
2022-11-26T19:24:59.307Z,39.90
2022-11-26T19:27:04.021Z,42.60
2022-11-26T19:29:10.395Z,45.13
2022-11-26T19:31:17.063Z,51.03
2022-11-26T19:33:21.803Z,53.25
2022-11-26T19:35:27.835Z,47.05
2022-11-26T19:37:32.093Z,46.00
2022-11-26T19:39:37.625Z,44.15
2022-11-26T19:41:42.192Z,45.05
2022-11-26T19:43:56.207Z,42.72
2022-11-26T19:46:05.214Z,39.45
2022-11-26T19:48:09.535Z,41.63
2022-11-26T19:50:13.718Z,40.40
2022-11-26T19:52:20.610Z,40.40
2022-11-26T19:54:27.208Z,40.22
2022-11-26T19:56:32.919Z,40.05
2022-11-26T19:58:38.883Z,40.70
2022-11-26T20:00:44.679Z,39.10
2022-11-26T20:02:49.152Z,40.30
2022-11-26T20:04:56.859Z,41.03
2022-11-26T20:07:04.097Z,41.70
2022-11-26T20:09:14.881Z,42.25
2022-11-26T20:11:20.617Z,41.17
2022-11-26T20:13:25.600Z,41.83
2022-11-26T20:15:29.962Z,40.83
2022-11-26T20:17:34.514Z,41.47
2022-11-26T20:19:38.889Z,40.35
2022-11-26T20:21:43.209Z,39.10
2022-11-26T20:23:48.104Z,40.00
2022-11-26T20:25:53.932Z,39.95
2022-11-26T20:27:59.456Z,37.80
2022-11-26T20:30:04.995Z,38.20
2022-11-26T20:32:09.538Z,36.63
2022-11-26T20:34:14.766Z,35.85
2022-11-26T20:36:20.971Z,34.95
2022-11-26T20:38:25.206Z,36.00
2022-11-26T20:40:29.305Z,34.72
2022-11-26T20:42:35.656Z,33.85
2022-11-26T20:44:40.380Z,33.45
2022-11-26T20:46:44.923Z,32.80
2022-11-26T20:48:49.026Z,33.95
2022-11-26T20:50:53.251Z,34.85
2022-11-26T20:52:57.727Z,36.95
2022-11-26T20:55:01.940Z,37.15
2022-11-26T20:57:07.265Z,36.15
2022-11-26T20:59:12.789Z,36.78
2022-11-26T21:01:18.215Z,38.45
2022-11-26T21:03:22.435Z,36.05
2022-11-26T21:05:26.816Z,37.80
2022-11-26T21:07:31.219Z,35.55
2022-11-26T21:09:35.534Z,34.97
2022-11-26T21:11:40.601Z,34.65
2022-11-26T21:13:45.249Z,36.63
2022-11-26T21:15:50.993Z,37.13
2022-11-26T21:17:55.241Z,36.05
2022-11-26T21:19:59.437Z,36.13
2022-11-26T21:22:03.717Z,35.45
2022-11-26T21:24:09.036Z,35.40
2022-11-26T21:26:16.544Z,35.85
2022-11-26T21:28:21.261Z,34.17
2022-11-26T21:30:25.700Z,31.55
2022-11-26T21:32:31.633Z,31.25
2022-11-26T21:34:35.754Z,31.95
2022-11-26T21:36:39.949Z,28.90
2022-11-26T21:38:48.287Z,27.52
2022-11-26T21:40:52.347Z,26.30
2022-11-26T21:42:56.460Z,25.98
2022-11-26T21:45:00.630Z,25.08
2022-11-26T21:47:04.925Z,26.75
2022-11-26T21:49:10.662Z,26.77
2022-11-26T21:51:17.026Z,25.38
2022-11-26T21:53:21.202Z,24.27
2022-11-26T21:55:25.535Z,25.08
2022-11-26T21:57:32.318Z,23.60
2022-11-26T21:59:36.431Z,23.35
2022-11-26T22:01:40.693Z,23.15
2022-11-26T22:03:47.136Z,22.48
2022-11-26T22:05:52.967Z,21.58
2022-11-26T22:07:57.196Z,19.15
2022-11-26T22:10:01.421Z,19.42
2022-11-26T22:12:08.270Z,18.52
2022-11-26T22:14:15.086Z,19.05
2022-11-26T22:16:22.010Z,17.85
2022-11-26T22:18:26.335Z,16.58
2022-11-26T22:20:31.882Z,16.33
2022-11-26T22:22:38.453Z,16.80
2022-11-26T22:24:42.645Z,15.80
2022-11-26T22:26:47.710Z,16.38
2022-11-26T22:28:52.479Z,16.88
2022-11-26T22:30:57.012Z,15.32
2022-11-26T22:33:01.588Z,16.30
2022-11-26T22:35:06.261Z,16.95
2022-11-26T22:37:10.385Z,16.25
2022-11-26T22:39:18.267Z,16.88
2022-11-26T22:41:22.746Z,16.58
2022-11-26T22:43:26.840Z,17.65
2022-11-26T22:45:31.679Z,16.92
2022-11-26T22:47:35.819Z,17.20
2022-11-26T22:49:40.350Z,16.88
2022-11-26T22:51:44.805Z,18.35
2022-11-26T22:53:51.719Z,17.92
2022-11-26T22:55:58.724Z,18.30
2022-11-26T22:58:03.295Z,17.52
2022-11-26T23:00:12.525Z,18.90
2022-11-26T23:02:16.741Z,17.15
2022-11-26T23:04:21.006Z,17.77
2022-11-26T23:06:27.656Z,16.80
2022-11-26T23:08:31.808Z,18.58
2022-11-26T23:10:39.921Z,17.73
2022-11-26T23:12:45.557Z,17.50
2022-11-26T23:14:50.167Z,18.15
2022-11-26T23:16:54.409Z,16.45
2022-11-26T23:18:59.238Z,17.20
2022-11-26T23:21:05.394Z,16.02
2022-11-26T23:23:10.322Z,16.55
2022-11-26T23:25:14.821Z,17.90
2022-11-26T23:27:18.964Z,16.33
2022-11-26T23:29:24.563Z,16.83
2022-11-26T23:31:31.510Z,15.90
2022-11-26T23:33:36.891Z,16.13
2022-11-26T23:35:43.805Z,16.10
2022-11-26T23:37:47.892Z,15.30
2022-11-26T23:39:52.145Z,16.13
2022-11-26T23:41:56.299Z,16.70
2022-11-26T23:44:00.587Z,16.80
2022-11-26T23:46:09.378Z,16.73
2022-11-26T23:48:13.647Z,16.63
2022-11-26T23:50:18.179Z,16.70
2022-11-26T23:52:22.402Z,16.58
2022-11-26T23:54:26.711Z,15.70
2022-11-26T23:56:32.812Z,15.25
2022-11-26T23:58:36.926Z,16.33
